sensor_id;sensor_type;location;lat;lon;timestamp;P1;durP1;ratioP1;P2;durP2;ratioP2
40198;SDS011;25906;43.536;26.068;2022-07-23T00:03:11;4.32;;;2.20;;
40198;SDS011;25906;43.536;26.068;2022-07-23T00:05:56;4.00;;;2.10;;
40198;SDS011;25906;43.536;26.068;2022-07-23T00:11:28;8.50;;;2.70;;
40198;SDS011;25906;43.536;26.068;2022-07-23T00:16:59;4.55;;;2.15;;
40198;SDS011;25906;43.536;26.068;2022-07-23T00:25:18;3.45;;;1.98;;
40198;SDS011;25906;43.536;26.068;2022-07-23T00:28:04;2.55;;;2.10;;
40198;SDS011;25906;43.536;26.068;2022-07-23T00:30:50;2.95;;;1.90;;
40198;SDS011;25906;43.536;26.068;2022-07-23T00:36:22;4.65;;;2.13;;
40198;SDS011;25906;43.536;26.068;2022-07-23T00:39:10;3.55;;;2.20;;
40198;SDS011;25906;43.536;26.068;2022-07-23T00:44:42;4.60;;;1.85;;
40198;SDS011;25906;43.536;26.068;2022-07-23T00:47:28;3.42;;;2.15;;
40198;SDS011;25906;43.536;26.068;2022-07-23T00:50:14;3.20;;;1.95;;
40198;SDS011;25906;43.536;26.068;2022-07-23T00:55:46;5.22;;;2.10;;
40198;SDS011;25906;43.536;26.068;2022-07-23T00:58:34;6.18;;;2.10;;
40198;SDS011;25906;43.536;26.068;2022-07-23T01:01:20;3.58;;;1.95;;
40198;SDS011;25906;43.536;26.068;2022-07-23T01:06:52;4.20;;;1.92;;
40198;SDS011;25906;43.536;26.068;2022-07-23T01:12:24;5.47;;;2.35;;
40198;SDS011;25906;43.536;26.068;2022-07-23T01:17:55;6.22;;;2.22;;
40198;SDS011;25906;43.536;26.068;2022-07-23T01:23:26;2.35;;;2.15;;
40198;SDS011;25906;43.536;26.068;2022-07-23T01:29:01;3.22;;;2.08;;
40198;SDS011;25906;43.536;26.068;2022-07-23T01:31:47;3.67;;;2.00;;
40198;SDS011;25906;43.536;26.068;2022-07-23T01:34:33;3.08;;;2.00;;
40198;SDS011;25906;43.536;26.068;2022-07-23T01:40:05;3.03;;;2.30;;
40198;SDS011;25906;43.536;26.068;2022-07-23T01:42:52;2.67;;;2.05;;
40198;SDS011;25906;43.536;26.068;2022-07-23T01:48:23;2.65;;;1.90;;
40198;SDS011;25906;43.536;26.068;2022-07-23T01:53:55;4.22;;;1.83;;
40198;SDS011;25906;43.536;26.068;2022-07-23T01:56:40;3.38;;;1.98;;
40198;SDS011;25906;43.536;26.068;2022-07-23T01:59:27;3.00;;;2.13;;
40198;SDS011;25906;43.536;26.068;2022-07-23T02:02:13;2.78;;;1.75;;
40198;SDS011;25906;43.536;26.068;2022-07-23T02:07:44;3.38;;;2.20;;
40198;SDS011;25906;43.536;26.068;2022-07-23T02:10:30;2.17;;;1.98;;
40198;SDS011;25906;43.536;26.068;2022-07-23T02:16:02;4.47;;;2.50;;
40198;SDS011;25906;43.536;26.068;2022-07-23T02:21:33;4.88;;;2.22;;
40198;SDS011;25906;43.536;26.068;2022-07-23T02:27:05;7.53;;;2.10;;
40198;SDS011;25906;43.536;26.068;2022-07-23T02:29:51;3.90;;;2.22;;
40198;SDS011;25906;43.536;26.068;2022-07-23T02:35:22;4.15;;;2.42;;
40198;SDS011;25906;43.536;26.068;2022-07-23T02:38:08;3.17;;;2.35;;
40198;SDS011;25906;43.536;26.068;2022-07-23T02:40:54;3.95;;;2.80;;
40198;SDS011;25906;43.536;26.068;2022-07-23T02:43:40;6.75;;;2.97;;
40198;SDS011;25906;43.536;26.068;2022-07-23T02:46:26;5.60;;;2.92;;
40198;SDS011;25906;43.536;26.068;2022-07-23T02:49:11;4.30;;;3.10;;
40198;SDS011;25906;43.536;26.068;2022-07-23T02:51:57;5.70;;;2.85;;
40198;SDS011;25906;43.536;26.068;2022-07-23T02:54:43;5.63;;;3.40;;
40198;SDS011;25906;43.536;26.068;2022-07-23T03:00:14;7.22;;;3.78;;
40198;SDS011;25906;43.536;26.068;2022-07-23T03:03:00;9.48;;;3.88;;
40198;SDS011;25906;43.536;26.068;2022-07-23T03:08:32;6.67;;;3.67;;
40198;SDS011;25906;43.536;26.068;2022-07-23T03:11:18;7.40;;;3.10;;
40198;SDS011;25906;43.536;26.068;2022-07-23T03:16:51;10.48;;;4.47;;
40198;SDS011;25906;43.536;26.068;2022-07-23T03:22:23;15.63;;;4.18;;
40198;SDS011;25906;43.536;26.068;2022-07-23T03:25:09;10.13;;;3.97;;
40198;SDS011;25906;43.536;26.068;2022-07-23T03:27:55;7.22;;;4.05;;
40198;SDS011;25906;43.536;26.068;2022-07-23T03:30:42;6.05;;;3.83;;
40198;SDS011;25906;43.536;26.068;2022-07-23T03:33:28;6.45;;;4.00;;
40198;SDS011;25906;43.536;26.068;2022-07-23T03:38:59;5.82;;;3.78;;
40198;SDS011;25906;43.536;26.068;2022-07-23T03:41:45;6.55;;;4.93;;
40198;SDS011;25906;43.536;26.068;2022-07-23T03:44:31;8.05;;;4.15;;
40198;SDS011;25906;43.536;26.068;2022-07-23T03:50:03;7.85;;;4.55;;
40198;SDS011;25906;43.536;26.068;2022-07-23T03:52:49;11.73;;;4.82;;
40198;SDS011;25906;43.536;26.068;2022-07-23T03:58:20;7.97;;;3.90;;
40198;SDS011;25906;43.536;26.068;2022-07-23T04:03:51;7.50;;;4.20;;
40198;SDS011;25906;43.536;26.068;2022-07-23T04:09:23;6.38;;;3.80;;
40198;SDS011;25906;43.536;26.068;2022-07-23T04:14:54;7.07;;;4.10;;
40198;SDS011;25906;43.536;26.068;2022-07-23T04:20:40;6.40;;;3.30;;
40198;SDS011;25906;43.536;26.068;2022-07-23T04:23:26;6.75;;;3.40;;
40198;SDS011;25906;43.536;26.068;2022-07-23T04:28:57;6.45;;;3.30;;
40198;SDS011;25906;43.536;26.068;2022-07-23T04:31:43;5.93;;;3.55;;
40198;SDS011;25906;43.536;26.068;2022-07-23T04:37:14;6.95;;;3.03;;
40198;SDS011;25906;43.536;26.068;2022-07-23T04:42:46;4.20;;;3.10;;
40198;SDS011;25906;43.536;26.068;2022-07-23T04:48:17;3.95;;;3.00;;
40198;SDS011;25906;43.536;26.068;2022-07-23T04:53:49;5.13;;;3.07;;
40198;SDS011;25906;43.536;26.068;2022-07-23T04:56:35;9.48;;;2.50;;
40198;SDS011;25906;43.536;26.068;2022-07-23T05:02:06;10.65;;;2.60;;
40198;SDS011;25906;43.536;26.068;2022-07-23T05:07:38;7.85;;;2.83;;
40198;SDS011;25906;43.536;26.068;2022-07-23T05:10:23;3.22;;;2.65;;
40198;SDS011;25906;43.536;26.068;2022-07-23T05:15:55;8.30;;;2.85;;
40198;SDS011;25906;43.536;26.068;2022-07-23T05:21:26;8.07;;;3.00;;
40198;SDS011;25906;43.536;26.068;2022-07-23T05:24:19;16.65;;;3.58;;
40198;SDS011;25906;43.536;26.068;2022-07-23T05:27:04;9.30;;;3.33;;
40198;SDS011;25906;43.536;26.068;2022-07-23T05:32:36;5.00;;;3.15;;
40198;SDS011;25906;43.536;26.068;2022-07-23T05:35:22;9.10;;;3.72;;
40198;SDS011;25906;43.536;26.068;2022-07-23T05:38:08;6.93;;;3.58;;
40198;SDS011;25906;43.536;26.068;2022-07-23T05:40:53;9.45;;;4.75;;
40198;SDS011;25906;43.536;26.068;2022-07-23T05:43:39;8.73;;;3.20;;
40198;SDS011;25906;43.536;26.068;2022-07-23T05:46:25;5.82;;;3.25;;
40198;SDS011;25906;43.536;26.068;2022-07-23T05:49:11;4.07;;;3.28;;
40198;SDS011;25906;43.536;26.068;2022-07-23T05:51:57;5.43;;;3.45;;
40198;SDS011;25906;43.536;26.068;2022-07-23T05:54:43;9.25;;;3.15;;
40198;SDS011;25906;43.536;26.068;2022-07-23T05:57:28;6.78;;;3.28;;
40198;SDS011;25906;43.536;26.068;2022-07-23T06:00:14;4.68;;;3.00;;
40198;SDS011;25906;43.536;26.068;2022-07-23T06:03:00;8.38;;;3.25;;
40198;SDS011;25906;43.536;26.068;2022-07-23T06:05:46;7.65;;;3.17;;
40198;SDS011;25906;43.536;26.068;2022-07-23T06:08:32;10.00;;;3.10;;
40198;SDS011;25906;43.536;26.068;2022-07-23T06:11:18;4.30;;;3.03;;
40198;SDS011;25906;43.536;26.068;2022-07-23T06:14:04;5.43;;;3.45;;
40198;SDS011;25906;43.536;26.068;2022-07-23T06:16:49;7.15;;;2.83;;
40198;SDS011;25906;43.536;26.068;2022-07-23T06:19:35;4.80;;;3.40;;
40198;SDS011;25906;43.536;26.068;2022-07-23T06:22:21;5.22;;;2.90;;
40198;SDS011;25906;43.536;26.068;2022-07-23T06:25:07;9.45;;;3.22;;
40198;SDS011;25906;43.536;26.068;2022-07-23T06:27:53;4.88;;;3.13;;
40198;SDS011;25906;43.536;26.068;2022-07-23T06:30:39;9.40;;;3.08;;
40198;SDS011;25906;43.536;26.068;2022-07-23T06:33:25;7.93;;;2.92;;
40198;SDS011;25906;43.536;26.068;2022-07-23T06:36:10;15.13;;;5.47;;
40198;SDS011;25906;43.536;26.068;2022-07-23T06:38:56;29.33;;;13.55;;
40198;SDS011;25906;43.536;26.068;2022-07-23T06:41:42;18.55;;;9.43;;
40198;SDS011;25906;43.536;26.068;2022-07-23T06:44:28;11.23;;;4.72;;
40198;SDS011;25906;43.536;26.068;2022-07-23T06:47:14;15.15;;;4.10;;
40198;SDS011;25906;43.536;26.068;2022-07-23T06:49:59;10.27;;;3.70;;
40198;SDS011;25906;43.536;26.068;2022-07-23T06:52:45;13.85;;;3.33;;
40198;SDS011;25906;43.536;26.068;2022-07-23T06:55:31;3.88;;;3.35;;
40198;SDS011;25906;43.536;26.068;2022-07-23T06:58:17;4.10;;;2.85;;
40198;SDS011;25906;43.536;26.068;2022-07-23T07:01:11;9.95;;;3.90;;
40198;SDS011;25906;43.536;26.068;2022-07-23T07:03:57;5.10;;;2.85;;
40198;SDS011;25906;43.536;26.068;2022-07-23T07:06:50;4.28;;;2.72;;
40198;SDS011;25906;43.536;26.068;2022-07-23T07:09:36;9.93;;;3.17;;
40198;SDS011;25906;43.536;26.068;2022-07-23T07:12:21;3.47;;;2.70;;
40198;SDS011;25906;43.536;26.068;2022-07-23T07:15:07;8.07;;;3.65;;
40198;SDS011;25906;43.536;26.068;2022-07-23T07:17:53;5.35;;;2.95;;
40198;SDS011;25906;43.536;26.068;2022-07-23T07:20:40;6.10;;;2.72;;
40198;SDS011;25906;43.536;26.068;2022-07-23T07:23:29;3.45;;;2.80;;
40198;SDS011;25906;43.536;26.068;2022-07-23T07:26:15;7.00;;;3.22;;
40198;SDS011;25906;43.536;26.068;2022-07-23T07:29:01;8.82;;;3.45;;
40198;SDS011;25906;43.536;26.068;2022-07-23T07:31:47;6.03;;;3.10;;
40198;SDS011;25906;43.536;26.068;2022-07-23T07:34:34;5.82;;;2.92;;
40198;SDS011;25906;43.536;26.068;2022-07-23T07:37:20;5.85;;;3.35;;
40198;SDS011;25906;43.536;26.068;2022-07-23T07:40:06;7.15;;;3.40;;
40198;SDS011;25906;43.536;26.068;2022-07-23T07:42:53;5.63;;;3.45;;
40198;SDS011;25906;43.536;26.068;2022-07-23T07:45:39;8.73;;;3.28;;
40198;SDS011;25906;43.536;26.068;2022-07-23T07:48:25;6.35;;;3.03;;
40198;SDS011;25906;43.536;26.068;2022-07-23T07:51:11;5.68;;;3.00;;
40198;SDS011;25906;43.536;26.068;2022-07-23T07:53:57;6.57;;;3.10;;
40198;SDS011;25906;43.536;26.068;2022-07-23T07:56:44;7.22;;;3.15;;
40198;SDS011;25906;43.536;26.068;2022-07-23T07:59:30;10.32;;;3.05;;
40198;SDS011;25906;43.536;26.068;2022-07-23T08:02:16;5.53;;;3.05;;
40198;SDS011;25906;43.536;26.068;2022-07-23T08:05:02;5.20;;;3.30;;
40198;SDS011;25906;43.536;26.068;2022-07-23T08:07:48;5.45;;;3.28;;
40198;SDS011;25906;43.536;26.068;2022-07-23T08:10:34;8.48;;;3.55;;
40198;SDS011;25906;43.536;26.068;2022-07-23T08:13:20;7.55;;;3.80;;
40198;SDS011;25906;43.536;26.068;2022-07-23T08:16:06;6.93;;;3.17;;
40198;SDS011;25906;43.536;26.068;2022-07-23T08:18:53;14.05;;;3.40;;
40198;SDS011;25906;43.536;26.068;2022-07-23T08:21:45;11.10;;;3.33;;
40198;SDS011;25906;43.536;26.068;2022-07-23T08:24:38;5.00;;;3.05;;
40198;SDS011;25906;43.536;26.068;2022-07-23T08:27:25;5.82;;;2.97;;
40198;SDS011;25906;43.536;26.068;2022-07-23T08:30:11;4.32;;;3.15;;
40198;SDS011;25906;43.536;26.068;2022-07-23T08:33:01;11.32;;;3.33;;
40198;SDS011;25906;43.536;26.068;2022-07-23T08:35:47;4.78;;;2.95;;
40198;SDS011;25906;43.536;26.068;2022-07-23T08:38:35;8.38;;;3.38;;
40198;SDS011;25906;43.536;26.068;2022-07-23T08:41:23;5.28;;;2.88;;
40198;SDS011;25906;43.536;26.068;2022-07-23T08:44:10;3.10;;;2.80;;
40198;SDS011;25906;43.536;26.068;2022-07-23T08:46:56;5.32;;;3.03;;
40198;SDS011;25906;43.536;26.068;2022-07-23T08:49:43;11.30;;;3.00;;
40198;SDS011;25906;43.536;26.068;2022-07-23T08:52:30;7.35;;;3.05;;
40198;SDS011;25906;43.536;26.068;2022-07-23T08:55:17;4.65;;;2.88;;
40198;SDS011;25906;43.536;26.068;2022-07-23T08:58:04;4.75;;;3.08;;
40198;SDS011;25906;43.536;26.068;2022-07-23T09:00:54;5.18;;;3.45;;
40198;SDS011;25906;43.536;26.068;2022-07-23T09:03:44;6.45;;;3.08;;
40198;SDS011;25906;43.536;26.068;2022-07-23T09:06:30;4.40;;;3.15;;
40198;SDS011;25906;43.536;26.068;2022-07-23T09:09:17;6.95;;;3.33;;
40198;SDS011;25906;43.536;26.068;2022-07-23T09:12:08;4.80;;;3.20;;
40198;SDS011;25906;43.536;26.068;2022-07-23T09:14:55;4.65;;;3.05;;
40198;SDS011;25906;43.536;26.068;2022-07-23T09:17:48;4.45;;;3.10;;
40198;SDS011;25906;43.536;26.068;2022-07-23T09:20:34;7.07;;;2.72;;
40198;SDS011;25906;43.536;26.068;2022-07-23T09:26:54;4.07;;;3.25;;
40198;SDS011;25906;43.536;26.068;2022-07-23T09:29:54;4.47;;;3.05;;
40198;SDS011;25906;43.536;26.068;2022-07-23T09:32:44;3.03;;;2.80;;
40198;SDS011;25906;43.536;26.068;2022-07-23T09:38:52;6.45;;;3.15;;
40198;SDS011;25906;43.536;26.068;2022-07-23T09:41:44;4.43;;;2.97;;
40198;SDS011;25906;43.536;26.068;2022-07-23T09:44:32;5.90;;;2.72;;
40198;SDS011;25906;43.536;26.068;2022-07-23T09:47:30;8.25;;;2.88;;
40198;SDS011;25906;43.536;26.068;2022-07-23T09:50:19;4.80;;;3.03;;
40198;SDS011;25906;43.536;26.068;2022-07-23T09:53:08;8.07;;;2.72;;
40198;SDS011;25906;43.536;26.068;2022-07-23T09:56:18;4.90;;;3.80;;
40198;SDS011;25906;43.536;26.068;2022-07-23T09:59:28;4.75;;;3.40;;
40198;SDS011;25906;43.536;26.068;2022-07-23T10:02:16;6.78;;;3.17;;
40198;SDS011;25906;43.536;26.068;2022-07-23T10:05:06;8.52;;;3.08;;
40198;SDS011;25906;43.536;26.068;2022-07-23T10:07:54;5.97;;;3.03;;
40198;SDS011;25906;43.536;26.068;2022-07-23T10:10:40;4.22;;;3.03;;
40198;SDS011;25906;43.536;26.068;2022-07-23T10:13:26;6.95;;;3.00;;
40198;SDS011;25906;43.536;26.068;2022-07-23T10:16:18;6.63;;;3.78;;
40198;SDS011;25906;43.536;26.068;2022-07-23T10:19:05;5.65;;;3.63;;
40198;SDS011;25906;43.536;26.068;2022-07-23T10:21:55;4.00;;;3.30;;
40198;SDS011;25906;43.536;26.068;2022-07-23T10:31:25;6.53;;;3.53;;
40198;SDS011;25906;43.536;26.068;2022-07-23T10:34:44;5.07;;;3.38;;
40198;SDS011;25906;43.536;26.068;2022-07-23T10:37:42;5.72;;;3.33;;
40198;SDS011;25906;43.536;26.068;2022-07-23T10:40:31;4.28;;;3.30;;
40198;SDS011;25906;43.536;26.068;2022-07-23T10:43:18;6.07;;;3.42;;
40198;SDS011;25906;43.536;26.068;2022-07-23T10:46:21;4.40;;;3.45;;
40198;SDS011;25906;43.536;26.068;2022-07-23T10:49:22;8.73;;;3.58;;
40198;SDS011;25906;43.536;26.068;2022-07-23T10:52:16;5.10;;;3.40;;
40198;SDS011;25906;43.536;26.068;2022-07-23T10:58:02;4.13;;;3.30;;
40198;SDS011;25906;43.536;26.068;2022-07-23T11:00:56;5.35;;;3.10;;
40198;SDS011;25906;43.536;26.068;2022-07-23T11:03:42;5.97;;;3.40;;
40198;SDS011;25906;43.536;26.068;2022-07-23T11:09:40;10.25;;;3.42;;
40198;SDS011;25906;43.536;26.068;2022-07-23T11:15:15;5.60;;;3.50;;
40198;SDS011;25906;43.536;26.068;2022-07-23T11:18:01;6.43;;;3.35;;
40198;SDS011;25906;43.536;26.068;2022-07-23T11:20:48;10.35;;;3.78;;
40198;SDS011;25906;43.536;26.068;2022-07-23T11:27:06;10.10;;;3.50;;
40198;SDS011;25906;43.536;26.068;2022-07-23T11:29:53;7.32;;;3.55;;
40198;SDS011;25906;43.536;26.068;2022-07-23T11:32:40;5.72;;;3.58;;
40198;SDS011;25906;43.536;26.068;2022-07-23T11:36:01;9.23;;;3.60;;
40198;SDS011;25906;43.536;26.068;2022-07-23T11:38:50;6.22;;;3.42;;
40198;SDS011;25906;43.536;26.068;2022-07-23T11:41:46;6.30;;;3.90;;
40198;SDS011;25906;43.536;26.068;2022-07-23T11:44:46;11.60;;;3.45;;
40198;SDS011;25906;43.536;26.068;2022-07-23T11:47:32;7.70;;;3.60;;
40198;SDS011;25906;43.536;26.068;2022-07-23T11:50:22;8.23;;;3.28;;
40198;SDS011;25906;43.536;26.068;2022-07-23T11:53:11;4.95;;;3.38;;
40198;SDS011;25906;43.536;26.068;2022-07-23T11:58:54;5.10;;;3.45;;
40198;SDS011;25906;43.536;26.068;2022-07-23T12:01:55;6.43;;;3.25;;
40198;SDS011;25906;43.536;26.068;2022-07-23T12:04:48;7.15;;;3.50;;
40198;SDS011;25906;43.536;26.068;2022-07-23T12:07:39;6.18;;;3.45;;
40198;SDS011;25906;43.536;26.068;2022-07-23T12:10:27;7.43;;;3.25;;
40198;SDS011;25906;43.536;26.068;2022-07-23T12:13:16;9.90;;;3.95;;
40198;SDS011;25906;43.536;26.068;2022-07-23T12:16:04;8.02;;;3.95;;
40198;SDS011;25906;43.536;26.068;2022-07-23T12:18:51;7.57;;;3.40;;
40198;SDS011;25906;43.536;26.068;2022-07-23T12:21:37;5.70;;;4.00;;
40198;SDS011;25906;43.536;26.068;2022-07-23T12:24:23;5.07;;;3.25;;
40198;SDS011;25906;43.536;26.068;2022-07-23T12:27:10;5.47;;;3.65;;
40198;SDS011;25906;43.536;26.068;2022-07-23T12:29:56;4.55;;;3.50;;
40198;SDS011;25906;43.536;26.068;2022-07-23T12:32:43;10.43;;;3.83;;
40198;SDS011;25906;43.536;26.068;2022-07-23T12:35:32;5.93;;;3.92;;
40198;SDS011;25906;43.536;26.068;2022-07-23T12:38:21;12.75;;;3.45;;
40198;SDS011;25906;43.536;26.068;2022-07-23T12:41:08;7.50;;;3.30;;
40198;SDS011;25906;43.536;26.068;2022-07-23T12:43:54;6.75;;;3.88;;
40198;SDS011;25906;43.536;26.068;2022-07-23T12:46:43;9.63;;;3.92;;
40198;SDS011;25906;43.536;26.068;2022-07-23T12:49:35;5.40;;;3.78;;
40198;SDS011;25906;43.536;26.068;2022-07-23T12:52:21;4.80;;;3.60;;
40198;SDS011;25906;43.536;26.068;2022-07-23T12:55:13;7.93;;;3.92;;
40198;SDS011;25906;43.536;26.068;2022-07-23T13:01:04;12.15;;;4.20;;
40198;SDS011;25906;43.536;26.068;2022-07-23T13:04:03;8.73;;;4.30;;
40198;SDS011;25906;43.536;26.068;2022-07-23T13:06:56;6.72;;;3.58;;
40198;SDS011;25906;43.536;26.068;2022-07-23T13:09:45;6.82;;;3.47;;
40198;SDS011;25906;43.536;26.068;2022-07-23T13:12:31;6.45;;;3.85;;
40198;SDS011;25906;43.536;26.068;2022-07-23T13:15:17;5.00;;;3.65;;
40198;SDS011;25906;43.536;26.068;2022-07-23T13:18:03;5.43;;;3.35;;
40198;SDS011;25906;43.536;26.068;2022-07-23T13:20:49;6.13;;;3.53;;
40198;SDS011;25906;43.536;26.068;2022-07-23T13:23:35;5.47;;;3.55;;
40198;SDS011;25906;43.536;26.068;2022-07-23T13:26:21;10.15;;;4.03;;
40198;SDS011;25906;43.536;26.068;2022-07-23T13:29:07;7.72;;;3.80;;
40198;SDS011;25906;43.536;26.068;2022-07-23T13:31:54;8.00;;;4.13;;
40198;SDS011;25906;43.536;26.068;2022-07-23T13:34:40;5.65;;;3.88;;
40198;SDS011;25906;43.536;26.068;2022-07-23T13:37:26;9.68;;;4.15;;
40198;SDS011;25906;43.536;26.068;2022-07-23T13:40:12;6.93;;;3.58;;
40198;SDS011;25906;43.536;26.068;2022-07-23T13:42:58;9.05;;;4.03;;
40198;SDS011;25906;43.536;26.068;2022-07-23T13:45:44;7.93;;;3.78;;
40198;SDS011;25906;43.536;26.068;2022-07-23T13:48:31;13.38;;;4.03;;
40198;SDS011;25906;43.536;26.068;2022-07-23T13:51:16;6.20;;;3.85;;
40198;SDS011;25906;43.536;26.068;2022-07-23T13:54:03;10.35;;;4.18;;
40198;SDS011;25906;43.536;26.068;2022-07-23T13:56:49;4.72;;;3.17;;
40198;SDS011;25906;43.536;26.068;2022-07-23T13:59:35;5.38;;;3.85;;
40198;SDS011;25906;43.536;26.068;2022-07-23T14:02:21;5.78;;;3.85;;
40198;SDS011;25906;43.536;26.068;2022-07-23T14:05:08;8.85;;;4.38;;
40198;SDS011;25906;43.536;26.068;2022-07-23T14:07:56;8.65;;;4.03;;
40198;SDS011;25906;43.536;26.068;2022-07-23T14:10:42;6.80;;;3.90;;
40198;SDS011;25906;43.536;26.068;2022-07-23T14:13:27;8.68;;;3.80;;
40198;SDS011;25906;43.536;26.068;2022-07-23T14:16:13;7.55;;;3.72;;
40198;SDS011;25906;43.536;26.068;2022-07-23T14:18:59;4.88;;;3.75;;
40198;SDS011;25906;43.536;26.068;2022-07-23T14:21:45;5.55;;;3.67;;
40198;SDS011;25906;43.536;26.068;2022-07-23T14:24:31;10.45;;;3.83;;
40198;SDS011;25906;43.536;26.068;2022-07-23T14:27:16;6.50;;;3.88;;
40198;SDS011;25906;43.536;26.068;2022-07-23T14:30:03;9.07;;;3.90;;
40198;SDS011;25906;43.536;26.068;2022-07-23T14:32:50;3.95;;;3.33;;
40198;SDS011;25906;43.536;26.068;2022-07-23T14:35:38;6.70;;;4.05;;
40198;SDS011;25906;43.536;26.068;2022-07-23T14:38:24;6.57;;;3.90;;
40198;SDS011;25906;43.536;26.068;2022-07-23T14:41:10;8.00;;;4.20;;
40198;SDS011;25906;43.536;26.068;2022-07-23T14:43:56;11.88;;;3.95;;
40198;SDS011;25906;43.536;26.068;2022-07-23T14:46:42;7.93;;;4.43;;
40198;SDS011;25906;43.536;26.068;2022-07-23T14:49:28;11.13;;;4.40;;
40198;SDS011;25906;43.536;26.068;2022-07-23T14:52:13;12.65;;;3.70;;
40198;SDS011;25906;43.536;26.068;2022-07-23T14:54:59;7.05;;;3.83;;
40198;SDS011;25906;43.536;26.068;2022-07-23T14:57:45;8.93;;;4.18;;
40198;SDS011;25906;43.536;26.068;2022-07-23T15:00:31;6.95;;;3.95;;
40198;SDS011;25906;43.536;26.068;2022-07-23T15:03:17;7.82;;;3.85;;
40198;SDS011;25906;43.536;26.068;2022-07-23T15:06:03;12.57;;;4.30;;
40198;SDS011;25906;43.536;26.068;2022-07-23T15:08:50;6.22;;;4.30;;
40198;SDS011;25906;43.536;26.068;2022-07-23T15:11:36;11.63;;;4.30;;
40198;SDS011;25906;43.536;26.068;2022-07-23T15:14:23;5.65;;;4.32;;
40198;SDS011;25906;43.536;26.068;2022-07-23T15:17:09;7.13;;;3.97;;
40198;SDS011;25906;43.536;26.068;2022-07-23T15:19:55;5.47;;;3.97;;
40198;SDS011;25906;43.536;26.068;2022-07-23T15:22:41;10.32;;;4.25;;
40198;SDS011;25906;43.536;26.068;2022-07-23T15:25:27;5.50;;;4.10;;
40198;SDS011;25906;43.536;26.068;2022-07-23T15:28:13;10.02;;;4.03;;
40198;SDS011;25906;43.536;26.068;2022-07-23T15:30:58;8.93;;;4.25;;
40198;SDS011;25906;43.536;26.068;2022-07-23T15:33:44;9.75;;;3.83;;
40198;SDS011;25906;43.536;26.068;2022-07-23T15:36:30;7.50;;;3.97;;
40198;SDS011;25906;43.536;26.068;2022-07-23T15:39:16;8.77;;;4.28;;
40198;SDS011;25906;43.536;26.068;2022-07-23T15:42:02;9.23;;;4.13;;
40198;SDS011;25906;43.536;26.068;2022-07-23T15:44:48;8.85;;;3.80;;
40198;SDS011;25906;43.536;26.068;2022-07-23T15:47:34;6.38;;;3.60;;
40198;SDS011;25906;43.536;26.068;2022-07-23T15:50:20;8.38;;;4.30;;
40198;SDS011;25906;43.536;26.068;2022-07-23T15:53:06;7.10;;;3.45;;
40198;SDS011;25906;43.536;26.068;2022-07-23T15:55:52;6.00;;;3.90;;
40198;SDS011;25906;43.536;26.068;2022-07-23T15:58:38;6.18;;;3.90;;
40198;SDS011;25906;43.536;26.068;2022-07-23T16:01:24;8.18;;;3.90;;
40198;SDS011;25906;43.536;26.068;2022-07-23T16:04:10;6.15;;;3.83;;
40198;SDS011;25906;43.536;26.068;2022-07-23T16:06:56;5.88;;;3.58;;
40198;SDS011;25906;43.536;26.068;2022-07-23T16:09:43;6.80;;;4.05;;
40198;SDS011;25906;43.536;26.068;2022-07-23T16:12:29;6.30;;;3.92;;
40198;SDS011;25906;43.536;26.068;2022-07-23T16:15:15;7.55;;;4.00;;
40198;SDS011;25906;43.536;26.068;2022-07-23T16:18:01;6.78;;;3.85;;
40198;SDS011;25906;43.536;26.068;2022-07-23T16:20:53;10.00;;;4.15;;
40198;SDS011;25906;43.536;26.068;2022-07-23T16:23:39;7.18;;;4.60;;
40198;SDS011;25906;43.536;26.068;2022-07-23T16:26:25;12.38;;;4.05;;
40198;SDS011;25906;43.536;26.068;2022-07-23T16:29:11;10.23;;;3.88;;
40198;SDS011;25906;43.536;26.068;2022-07-23T16:31:57;6.50;;;3.85;;
40198;SDS011;25906;43.536;26.068;2022-07-23T16:34:42;8.82;;;3.47;;
40198;SDS011;25906;43.536;26.068;2022-07-23T16:37:28;7.20;;;4.35;;
40198;SDS011;25906;43.536;26.068;2022-07-23T16:40:14;5.40;;;3.72;;
40198;SDS011;25906;43.536;26.068;2022-07-23T16:43:00;6.78;;;4.15;;
40198;SDS011;25906;43.536;26.068;2022-07-23T16:45:47;8.57;;;4.00;;
40198;SDS011;25906;43.536;26.068;2022-07-23T16:48:33;3.78;;;3.40;;
40198;SDS011;25906;43.536;26.068;2022-07-23T16:51:19;7.72;;;4.05;;
40198;SDS011;25906;43.536;26.068;2022-07-23T16:54:05;5.82;;;3.65;;
40198;SDS011;25906;43.536;26.068;2022-07-23T16:56:50;6.28;;;3.30;;
40198;SDS011;25906;43.536;26.068;2022-07-23T16:59:36;8.93;;;3.80;;
40198;SDS011;25906;43.536;26.068;2022-07-23T17:02:22;7.10;;;3.80;;
40198;SDS011;25906;43.536;26.068;2022-07-23T17:05:08;12.38;;;4.03;;
40198;SDS011;25906;43.536;26.068;2022-07-23T17:07:54;12.05;;;4.07;;
40198;SDS011;25906;43.536;26.068;2022-07-23T17:10:40;6.57;;;4.03;;
40198;SDS011;25906;43.536;26.068;2022-07-23T17:13:33;6.65;;;3.92;;
40198;SDS011;25906;43.536;26.068;2022-07-23T17:16:18;7.85;;;4.05;;
40198;SDS011;25906;43.536;26.068;2022-07-23T17:19:05;8.55;;;3.92;;
40198;SDS011;25906;43.536;26.068;2022-07-23T17:21:51;8.10;;;3.90;;
40198;SDS011;25906;43.536;26.068;2022-07-23T17:24:37;9.48;;;4.25;;
40198;SDS011;25906;43.536;26.068;2022-07-23T17:27:23;10.88;;;3.72;;
40198;SDS011;25906;43.536;26.068;2022-07-23T17:30:11;5.82;;;3.90;;
40198;SDS011;25906;43.536;26.068;2022-07-23T17:32:58;7.47;;;4.20;;
40198;SDS011;25906;43.536;26.068;2022-07-23T17:35:44;10.93;;;4.93;;
40198;SDS011;25906;43.536;26.068;2022-07-23T17:38:30;17.73;;;4.28;;
40198;SDS011;25906;43.536;26.068;2022-07-23T17:41:16;6.57;;;4.03;;
40198;SDS011;25906;43.536;26.068;2022-07-23T17:44:01;6.78;;;3.75;;
40198;SDS011;25906;43.536;26.068;2022-07-23T17:46:47;7.75;;;3.90;;
40198;SDS011;25906;43.536;26.068;2022-07-23T17:49:33;6.90;;;4.28;;
40198;SDS011;25906;43.536;26.068;2022-07-23T17:52:19;11.43;;;4.45;;
40198;SDS011;25906;43.536;26.068;2022-07-23T17:55:05;8.63;;;4.57;;
40198;SDS011;25906;43.536;26.068;2022-07-23T17:57:51;10.73;;;4.57;;
40198;SDS011;25906;43.536;26.068;2022-07-23T18:00:39;9.25;;;4.38;;
40198;SDS011;25906;43.536;26.068;2022-07-23T18:03:24;14.13;;;5.28;;
40198;SDS011;25906;43.536;26.068;2022-07-23T18:06:10;11.05;;;4.63;;
40198;SDS011;25906;43.536;26.068;2022-07-23T18:08:56;8.02;;;4.88;;
40198;SDS011;25906;43.536;26.068;2022-07-23T18:11:42;6.97;;;4.30;;
40198;SDS011;25906;43.536;26.068;2022-07-23T18:14:28;7.18;;;4.38;;
40198;SDS011;25906;43.536;26.068;2022-07-23T18:17:15;11.98;;;4.60;;
40198;SDS011;25906;43.536;26.068;2022-07-23T18:20:03;6.80;;;4.03;;
40198;SDS011;25906;43.536;26.068;2022-07-23T18:22:50;13.63;;;4.20;;
40198;SDS011;25906;43.536;26.068;2022-07-23T18:25:38;9.77;;;3.95;;
40198;SDS011;25906;43.536;26.068;2022-07-23T18:28:23;8.00;;;3.95;;
40198;SDS011;25906;43.536;26.068;2022-07-23T18:31:09;8.80;;;4.30;;
40198;SDS011;25906;43.536;26.068;2022-07-23T18:33:56;8.32;;;4.07;;
40198;SDS011;25906;43.536;26.068;2022-07-23T18:36:43;8.57;;;4.38;;
40198;SDS011;25906;43.536;26.068;2022-07-23T18:39:29;9.20;;;4.22;;
40198;SDS011;25906;43.536;26.068;2022-07-23T18:42:19;8.15;;;3.45;;
40198;SDS011;25906;43.536;26.068;2022-07-23T18:45:06;11.50;;;4.13;;
40198;SDS011;25906;43.536;26.068;2022-07-23T18:47:53;6.55;;;3.88;;
40198;SDS011;25906;43.536;26.068;2022-07-23T18:50:39;6.55;;;3.53;;
40198;SDS011;25906;43.536;26.068;2022-07-23T18:53:26;8.07;;;3.63;;
40198;SDS011;25906;43.536;26.068;2022-07-23T18:56:11;8.35;;;4.13;;
40198;SDS011;25906;43.536;26.068;2022-07-23T18:58:58;5.03;;;3.67;;